createdAt,value
2022-12-29T00:01:08.661Z,93.48
2022-12-29T00:03:37.605Z,93.34
2022-12-29T00:06:08.004Z,93.27
2022-12-29T00:08:42.988Z,91.81
2022-12-29T00:11:15.351Z,91.36
2022-12-29T00:14:03.276Z,91.43
2022-12-29T00:16:33.567Z,91.62
2022-12-29T00:19:05.849Z,91.91
2022-12-29T00:21:52.626Z,90.60
2022-12-29T00:24:23.183Z,90.06
2022-12-29T00:27:16.596Z,89.90
2022-12-29T00:30:05.706Z,90.16
2022-12-29T00:32:53.114Z,91.66
2022-12-29T00:35:33.933Z,90.52
2022-12-29T00:38:25.713Z,90.94
2022-12-29T00:41:12.702Z,90.96
2022-12-29T00:44:00.155Z,91.16
2022-12-29T00:46:30.496Z,90.99
2022-12-29T00:49:18.132Z,91.64
2022-12-29T00:51:47.855Z,91.10
2022-12-29T00:54:18.121Z,91.36
2022-12-29T00:56:52.744Z,91.08
2022-12-29T00:59:22.096Z,90.93
2022-12-29T01:01:53.482Z,91.59
2022-12-29T01:04:25.812Z,91.90
2022-12-29T01:06:55.170Z,91.19
2022-12-29T01:09:42.702Z,90.74
2022-12-29T01:12:12.344Z,90.19
2022-12-29T01:14:41.572Z,91.47
2022-12-29T01:17:13.442Z,90.80
2022-12-29T01:19:42.812Z,91.65
2022-12-29T01:22:11.721Z,92.13
2022-12-29T01:24:40.580Z,91.70
2022-12-29T01:27:09.520Z,92.70
2022-12-29T01:29:38.382Z,92.41
2022-12-29T01:32:07.729Z,93.01
2022-12-29T01:34:36.668Z,93.03
2022-12-29T01:37:05.905Z,92.64
2022-12-29T01:39:34.803Z,93.01
2022-12-29T01:42:03.796Z,93.48
2022-12-29T01:45:04.893Z,94.26
2022-12-29T01:48:00.344Z,93.46
2022-12-29T01:50:51.182Z,93.11
2022-12-29T01:53:34.232Z,94.47
2022-12-29T01:56:09.376Z,95.19
2022-12-29T01:58:46.185Z,94.63
2022-12-29T02:01:16.742Z,93.47
2022-12-29T02:03:48.087Z,94.50
2022-12-29T02:06:30.783Z,94.65
2022-12-29T02:09:00.245Z,93.95
2022-12-29T02:11:31.250Z,95.66
2022-12-29T02:14:03.544Z,95.55
2022-12-29T02:17:04.449Z,95.86
2022-12-29T02:19:57.901Z,95.45
2022-12-29T02:23:00.817Z,95.71
2022-12-29T02:26:04.102Z,96.28
2022-12-29T02:28:47.971Z,95.51
2022-12-29T02:31:31.619Z,97.40
2022-12-29T02:34:36.887Z,96.39
2022-12-29T02:37:19.104Z,96.47
2022-12-29T02:40:15.119Z,96.42
2022-12-29T02:43:23.020Z,96.91
2022-12-29T02:46:38.392Z,95.99
2022-12-29T02:49:30.484Z,96.00
2022-12-29T02:52:09.167Z,96.76
2022-12-29T02:54:44.101Z,97.04
2022-12-29T02:57:32.865Z,96.00
2022-12-29T03:00:09.391Z,97.51
2022-12-29T03:03:05.402Z,98.13
2022-12-29T03:06:20.177Z,98.24
2022-12-29T03:09:03.626Z,97.69
2022-12-29T03:12:02.258Z,97.28
2022-12-29T03:14:57.689Z,96.60
2022-12-29T03:17:41.303Z,98.68
2022-12-29T03:20:18.929Z,99.38
2022-12-29T03:22:52.709Z,99.47
2022-12-29T03:25:40.462Z,99.75
2022-12-29T03:28:22.648Z,100.00
2022-12-29T03:30:51.919Z,100.00
2022-12-29T03:33:28.834Z,99.11
2022-12-29T03:36:06.341Z,97.20
2022-12-29T03:39:19.605Z,98.22
2022-12-29T03:41:52.254Z,99.79
2022-12-29T03:44:22.435Z,99.23
2022-12-29T03:46:51.631Z,98.71
2022-12-29T03:49:20.878Z,99.60
2022-12-29T03:51:51.915Z,99.60
2022-12-29T03:54:21.820Z,98.09
2022-12-29T03:56:51.031Z,97.07
2022-12-29T03:59:24.530Z,99.31
2022-12-29T04:01:53.586Z,100.00
2022-12-29T04:04:23.521Z,99.98
2022-12-29T04:06:52.488Z,99.05
2022-12-29T04:09:21.540Z,98.82
2022-12-29T04:11:51.704Z,99.98
2022-12-29T04:14:21.337Z,100.00
2022-12-29T04:16:50.263Z,99.97
2022-12-29T04:19:19.314Z,99.89
2022-12-29T04:21:49.787Z,99.42
2022-12-29T04:24:19.039Z,99.80
2022-12-29T04:26:49.924Z,98.38
2022-12-29T04:29:36.047Z,98.04
2022-12-29T04:32:07.720Z,98.53
2022-12-29T04:34:40.687Z,100.00
2022-12-29T04:37:09.503Z,100.00
2022-12-29T04:39:38.465Z,99.99
2022-12-29T04:42:08.599Z,99.45
2022-12-29T04:44:42.968Z,99.86
2022-12-29T04:47:17.641Z,99.87
2022-12-29T04:49:57.112Z,99.61
2022-12-29T04:53:16.265Z,99.86
2022-12-29T04:55:50.951Z,99.98
2022-12-29T04:58:23.859Z,99.80
2022-12-29T05:00:54.151Z,100.00
2022-12-29T05:03:25.835Z,100.00
2022-12-29T05:05:56.935Z,100.00
2022-12-29T05:08:28.254Z,100.00
2022-12-29T05:10:58.634Z,100.00
2022-12-29T05:13:28.416Z,100.00
2022-12-29T05:15:57.825Z,99.88
2022-12-29T05:18:26.936Z,99.89
2022-12-29T05:20:56.297Z,100.00
2022-12-29T05:23:26.069Z,100.00
2022-12-29T05:26:01.858Z,99.89
2022-12-29T05:28:58.752Z,100.00
2022-12-29T05:31:28.462Z,99.82
2022-12-29T05:33:57.451Z,100.00
2022-12-29T05:36:26.896Z,100.00
2022-12-29T05:39:01.172Z,100.00
2022-12-29T05:41:30.368Z,100.00
2022-12-29T05:44:15.911Z,99.98
2022-12-29T05:47:30.772Z,100.00
2022-12-29T05:50:26.585Z,100.00
2022-12-29T05:53:46.346Z,100.00
2022-12-29T05:56:16.773Z,100.00
2022-12-29T05:58:48.929Z,100.00
2022-12-29T06:01:18.102Z,99.61
2022-12-29T06:03:48.512Z,100.00
2022-12-29T06:06:18.661Z,100.00
2022-12-29T06:08:48.305Z,100.00
2022-12-29T06:11:18.792Z,100.00
2022-12-29T06:13:52.816Z,100.00
2022-12-29T06:16:23.419Z,100.00
2022-12-29T06:18:56.187Z,100.00
2022-12-29T06:21:25.212Z,100.00
2022-12-29T06:23:54.972Z,99.57
2022-12-29T06:26:24.201Z,98.95
2022-12-29T06:28:53.618Z,99.17
2022-12-29T06:31:23.238Z,99.11
2022-12-29T06:33:53.303Z,98.47
2022-12-29T06:36:22.149Z,98.54
2022-12-29T06:38:53.697Z,97.98
2022-12-29T06:41:29.988Z,97.76
2022-12-29T06:45:00.137Z,98.99
2022-12-29T06:47:29.246Z,98.57
2022-12-29T06:49:58.166Z,97.74
2022-12-29T06:52:27.129Z,97.17
2022-12-29T06:54:56.612Z,98.01
2022-12-29T06:57:27.716Z,97.20
2022-12-29T06:59:59.160Z,96.38
2022-12-29T07:02:29.221Z,95.72
2022-12-29T07:04:58.899Z,95.57
2022-12-29T07:07:27.606Z,95.49
2022-12-29T07:09:56.511Z,94.48
2022-12-29T07:12:25.504Z,94.24
2022-12-29T07:14:54.521Z,93.51
2022-12-29T07:17:23.566Z,93.43
2022-12-29T07:19:52.796Z,93.72
2022-12-29T07:22:22.017Z,92.23
2022-12-29T07:24:50.954Z,92.16
2022-12-29T07:27:19.702Z,91.81
2022-12-29T07:29:49.360Z,91.73
2022-12-29T07:32:20.221Z,90.81
2022-12-29T07:34:50.744Z,89.89
2022-12-29T07:37:19.886Z,88.97
2022-12-29T07:39:48.891Z,88.66
2022-12-29T07:42:17.717Z,88.78
2022-12-29T07:44:52.549Z,87.32
2022-12-29T07:47:29.040Z,87.22
2022-12-29T07:49:57.852Z,86.33
2022-12-29T07:52:31.584Z,86.92
2022-12-29T07:55:00.532Z,86.90
2022-12-29T07:57:32.147Z,86.21
2022-12-29T08:00:03.380Z,85.77
2022-12-29T08:02:41.358Z,84.74
2022-12-29T08:05:10.427Z,84.71
2022-12-29T08:07:39.316Z,85.21
2022-12-29T08:10:11.714Z,84.28
2022-12-29T08:12:40.822Z,83.38
2022-12-29T08:15:12.587Z,83.29
2022-12-29T08:17:41.741Z,82.88
2022-12-29T08:20:11.240Z,83.56
2022-12-29T08:22:41.865Z,82.92
2022-12-29T08:25:11.123Z,82.46
2022-12-29T08:27:40.111Z,82.03
2022-12-29T08:30:10.101Z,81.59
2022-12-29T08:32:38.947Z,81.68
2022-12-29T08:35:08.305Z,80.85
2022-12-29T08:37:37.151Z,81.61
2022-12-29T08:40:07.084Z,80.19
2022-12-29T08:42:36.028Z,81.09
2022-12-29T08:45:05.486Z,80.73
2022-12-29T08:47:34.306Z,79.79
2022-12-29T08:50:03.803Z,79.37
2022-12-29T08:52:32.603Z,80.32
2022-12-29T08:55:01.507Z,78.98
2022-12-29T08:57:31.887Z,79.00
2022-12-29T09:00:12.689Z,78.64
2022-12-29T09:02:41.762Z,79.18
2022-12-29T09:05:11.060Z,78.76
2022-12-29T09:07:48.765Z,78.15
2022-12-29T09:10:17.730Z,78.52
2022-12-29T09:12:46.637Z,77.83
2022-12-29T09:15:16.766Z,77.17
2022-12-29T09:17:45.655Z,76.67
2022-12-29T09:20:18.503Z,76.15
2022-12-29T09:22:48.439Z,76.91
2022-12-29T09:25:17.886Z,75.86
2022-12-29T09:27:48.920Z,75.97
2022-12-29T09:30:17.864Z,75.86
2022-12-29T09:32:50.726Z,74.84
2022-12-29T09:35:22.281Z,74.85
2022-12-29T09:37:51.093Z,74.10
2022-12-29T09:40:31.808Z,73.38
2022-12-29T09:43:22.461Z,72.58
2022-12-29T09:46:27.063Z,71.46
2022-12-29T09:49:08.997Z,71.32
2022-12-29T09:51:41.559Z,71.56
2022-12-29T09:54:25.946Z,70.20
2022-12-29T09:56:55.384Z,69.23
2022-12-29T09:59:41.343Z,69.20
2022-12-29T10:02:35.744Z,69.37
2022-12-29T10:05:13.930Z,69.55
2022-12-29T10:08:06.808Z,69.51
2022-12-29T10:10:57.920Z,69.02
2022-12-29T10:14:18.653Z,68.33
2022-12-29T10:17:05.931Z,67.26
2022-12-29T10:19:52.149Z,67.07
2022-12-29T10:22:40.286Z,68.30
2022-12-29T10:25:21.170Z,67.60
2022-12-29T10:27:55.421Z,68.28
2022-12-29T10:30:25.244Z,67.14
2022-12-29T10:32:59.565Z,66.62
2022-12-29T10:35:38.424Z,65.42
2022-12-29T10:38:39.193Z,65.72
2022-12-29T10:41:29.132Z,64.25
2022-12-29T10:43:59.033Z,65.10
2022-12-29T10:46:37.965Z,63.70
2022-12-29T10:49:21.520Z,62.96
2022-12-29T10:51:53.262Z,64.17
2022-12-29T10:54:48.322Z,62.77
2022-12-29T10:57:50.153Z,62.01
2022-12-29T11:00:22.486Z,60.81
2022-12-29T11:03:29.182Z,60.39
2022-12-29T11:06:03.839Z,60.28
2022-12-29T11:08:40.347Z,62.23
2022-12-29T11:11:11.434Z,61.63
2022-12-29T11:14:11.602Z,58.93
2022-12-29T11:16:42.943Z,57.76
2022-12-29T11:19:28.110Z,59.04
2022-12-29T11:21:56.984Z,57.70
2022-12-29T11:24:29.592Z,54.94
2022-12-29T11:27:26.213Z,55.73
2022-12-29T11:29:55.692Z,56.90
2022-12-29T11:32:33.122Z,53.57
2022-12-29T11:35:05.376Z,53.14
2022-12-29T11:37:40.879Z,53.18
2022-12-29T11:40:22.480Z,53.73
2022-12-29T11:43:34.815Z,53.42
2022-12-29T11:46:05.518Z,53.70
2022-12-29T11:48:41.515Z,52.66
2022-12-29T11:51:13.148Z,51.57
2022-12-29T11:53:52.791Z,51.54
2022-12-29T11:56:39.964Z,51.60
2022-12-29T11:59:31.161Z,51.94
2022-12-29T12:02:04.338Z,50.97
2022-12-29T12:04:38.817Z,50.58
2022-12-29T12:07:32.032Z,49.86
2022-12-29T12:10:07.987Z,50.84
2022-12-29T12:12:55.329Z,50.91
2022-12-29T12:15:47.484Z,50.32
2022-12-29T12:18:18.534Z,50.94
2022-12-29T12:20:52.120Z,50.87
2022-12-29T12:24:02.152Z,51.16
2022-12-29T12:26:57.306Z,50.46
2022-12-29T12:29:45.378Z,50.65
2022-12-29T12:32:53.711Z,51.20
2022-12-29T12:35:47.105Z,51.40
2022-12-29T12:39:09.946Z,50.99
2022-12-29T12:42:25.756Z,50.97
2022-12-29T12:45:19.058Z,50.45
2022-12-29T12:48:08.073Z,50.40
2022-12-29T12:50:48.895Z,50.42
2022-12-29T12:53:35.236Z,51.02
2022-12-29T12:56:32.985Z,52.65
2022-12-29T12:59:46.475Z,53.79
2022-12-29T13:02:34.212Z,55.17
2022-12-29T13:05:26.913Z,56.64
2022-12-29T13:08:31.827Z,58.60
2022-12-29T13:11:12.574Z,59.30
2022-12-29T13:14:17.781Z,59.68
2022-12-29T13:17:14.800Z,61.93
2022-12-29T13:20:11.393Z,62.60
2022-12-29T13:22:47.316Z,64.21
2022-12-29T13:25:37.448Z,64.58
2022-12-29T13:28:37.144Z,67.80
2022-12-29T13:31:21.379Z,68.47
2022-12-29T13:33:58.082Z,68.82
2022-12-29T13:36:38.471Z,68.91
2022-12-29T13:39:36.785Z,69.89
2022-12-29T13:42:06.664Z,70.63
2022-12-29T13:44:42.888Z,71.04
2022-12-29T13:47:34.767Z,71.60
2022-12-29T13:50:12.805Z,72.50
2022-12-29T13:53:29.097Z,73.00
2022-12-29T13:56:21.849Z,73.13
2022-12-29T13:59:30.525Z,72.63
2022-12-29T14:02:10.091Z,75.14
2022-12-29T14:05:06.468Z,74.58
2022-12-29T14:07:40.177Z,74.09
2022-12-29T14:10:36.946Z,74.90
2022-12-29T14:13:19.042Z,75.46
2022-12-29T14:16:00.125Z,75.50
2022-12-29T14:18:33.196Z,75.78
2022-12-29T14:21:29.141Z,76.02
2022-12-29T14:24:29.732Z,76.29
2022-12-29T14:26:58.920Z,76.00
2022-12-29T14:29:31.005Z,76.28
2022-12-29T14:32:00.268Z,77.53
2022-12-29T14:34:38.556Z,78.47
2022-12-29T14:37:27.257Z,78.88
2022-12-29T14:40:24.619Z,79.59
2022-12-29T14:42:57.721Z,79.64
2022-12-29T14:45:29.318Z,80.82
2022-12-29T14:47:58.260Z,80.68
2022-12-29T14:50:42.752Z,80.40
2022-12-29T14:53:46.267Z,79.26
2022-12-29T14:56:20.095Z,80.66
2022-12-29T14:58:56.737Z,82.12
2022-12-29T15:01:53.748Z,83.25
2022-12-29T15:04:33.683Z,82.45
2022-12-29T15:07:08.751Z,82.85
2022-12-29T15:09:56.020Z,82.05
2022-12-29T15:12:56.953Z,83.50
2022-12-29T15:15:31.154Z,84.39
2022-12-29T15:18:15.286Z,84.50
2022-12-29T15:20:44.633Z,84.30
2022-12-29T15:23:17.659Z,85.05
2022-12-29T15:25:59.141Z,84.39
2022-12-29T15:28:38.986Z,83.94
2022-12-29T15:31:30.198Z,84.73
2022-12-29T15:34:23.312Z,84.92
2022-12-29T15:36:52.496Z,84.41
2022-12-29T15:39:30.070Z,84.57
2022-12-29T15:42:21.691Z,84.88
2022-12-29T15:44:57.741Z,85.67
2022-12-29T15:47:33.437Z,86.98
2022-12-29T15:50:23.509Z,86.65
2022-12-29T15:52:52.734Z,86.69
2022-12-29T15:55:34.163Z,86.98
2022-12-29T15:58:20.742Z,86.67
2022-12-29T16:01:01.825Z,87.95
2022-12-29T16:03:38.184Z,88.56
2022-12-29T16:06:34.736Z,88.76
2022-12-29T16:09:19.870Z,89.24
2022-12-29T16:11:56.415Z,90.20
2022-12-29T16:15:15.322Z,89.95
2022-12-29T16:17:54.646Z,90.83
2022-12-29T16:20:42.606Z,91.03
2022-12-29T16:23:26.653Z,89.88
2022-12-29T16:25:58.963Z,91.67
2022-12-29T16:28:43.616Z,93.10
2022-12-29T16:31:51.209Z,95.12
2022-12-29T16:34:29.636Z,93.99
2022-12-29T16:37:04.354Z,92.05
2022-12-29T16:39:37.330Z,91.61
2022-12-29T16:42:36.452Z,91.70
2022-12-29T16:45:20.352Z,91.56
2022-12-29T16:48:08.532Z,92.30
2022-12-29T16:50:44.939Z,92.15
2022-12-29T16:53:25.990Z,92.34
2022-12-29T16:55:56.872Z,93.81
2022-12-29T16:58:30.323Z,94.32
2022-12-29T17:01:04.137Z,94.80
2022-12-29T17:03:52.550Z,95.51
2022-12-29T17:06:24.012Z,94.04
2022-12-29T17:08:53.548Z,93.12
2022-12-29T17:12:08.377Z,93.58
2022-12-29T17:15:09.614Z,94.04
2022-12-29T17:17:45.501Z,94.47
2022-12-29T17:20:27.764Z,96.09
2022-12-29T17:22:58.181Z,95.62
2022-12-29T17:25:50.241Z,94.54
2022-12-29T17:28:22.155Z,94.55
2022-12-29T17:31:03.042Z,94.33
2022-12-29T17:33:40.356Z,93.03
2022-12-29T17:36:12.806Z,96.92
2022-12-29T17:38:42.221Z,96.59
2022-12-29T17:41:15.560Z,95.45
2022-12-29T17:43:44.387Z,95.83
2022-12-29T17:46:13.559Z,94.94
2022-12-29T17:48:43.851Z,94.78
2022-12-29T17:51:14.282Z,95.96
2022-12-29T17:53:43.138Z,95.99
2022-12-29T17:56:12.901Z,96.97
2022-12-29T17:58:41.660Z,96.60
2022-12-29T18:01:15.828Z,96.61
2022-12-29T18:03:45.352Z,96.86
2022-12-29T18:06:15.043Z,96.83
2022-12-29T18:08:45.131Z,98.54
2022-12-29T18:11:27.314Z,97.46
2022-12-29T18:13:56.965Z,96.65
2022-12-29T18:16:27.121Z,96.12
2022-12-29T18:18:56.683Z,96.35
2022-12-29T18:21:25.898Z,96.45
2022-12-29T18:23:55.538Z,95.83
2022-12-29T18:26:31.982Z,95.89
2022-12-29T18:29:01.855Z,95.52
2022-12-29T18:31:34.012Z,97.16
2022-12-29T18:34:13.752Z,98.75
2022-12-29T18:36:49.229Z,97.63
2022-12-29T18:39:18.924Z,98.45
2022-12-29T18:41:47.837Z,97.12
2022-12-29T18:44:24.816Z,96.44
2022-12-29T18:46:57.829Z,97.48
2022-12-29T18:49:26.898Z,99.74
2022-12-29T18:51:57.825Z,98.68
2022-12-29T18:54:32.752Z,96.42
2022-12-29T18:57:01.669Z,96.51
2022-12-29T18:59:30.744Z,97.77
2022-12-29T19:02:05.314Z,99.33
2022-12-29T19:04:36.825Z,97.86
2022-12-29T19:07:11.061Z,96.95
2022-12-29T19:09:43.185Z,96.56
2022-12-29T19:12:17.127Z,96.45
2022-12-29T19:14:46.812Z,97.27
2022-12-29T19:17:15.793Z,99.25
2022-12-29T19:19:45.496Z,98.93
2022-12-29T19:22:14.330Z,98.22
2022-12-29T19:24:46.077Z,99.45
2022-12-29T19:27:15.653Z,99.88
2022-12-29T19:29:49.834Z,99.88
2022-12-29T19:32:19.468Z,99.08
2022-12-29T19:34:49.060Z,99.98
2022-12-29T19:37:21.515Z,99.96
2022-12-29T19:39:54.649Z,98.98
2022-12-29T19:42:23.844Z,98.90
2022-12-29T19:44:53.619Z,98.45
2022-12-29T19:47:27.059Z,99.32
2022-12-29T19:50:01.677Z,99.30
2022-12-29T19:52:32.199Z,99.10
2022-12-29T19:55:01.471Z,99.01
2022-12-29T19:57:31.293Z,98.99
2022-12-29T20:00:00.253Z,98.42
2022-12-29T20:02:34.829Z,99.86
2022-12-29T20:05:04.693Z,100.00
2022-12-29T20:07:34.014Z,99.18
2022-12-29T20:10:05.326Z,100.00
2022-12-29T20:12:44.001Z,100.00
2022-12-29T20:15:15.819Z,99.43
2022-12-29T20:18:11.428Z,98.39
2022-12-29T20:20:38.068Z,98.16
2022-12-29T20:23:12.828Z,99.12
2022-12-29T20:25:46.136Z,98.83
2022-12-29T20:28:16.913Z,99.93
2022-12-29T20:31:15.070Z,100.00
2022-12-29T20:33:48.284Z,100.00
2022-12-29T20:36:29.278Z,99.52
2022-12-29T20:39:03.436Z,98.85
2022-12-29T20:41:42.297Z,99.53
2022-12-29T20:44:17.638Z,99.92
2022-12-29T20:46:47.194Z,100.00
2022-12-29T20:49:21.237Z,100.00
2022-12-29T20:52:05.671Z,99.22
2022-12-29T20:54:39.498Z,99.66
2022-12-29T20:57:08.903Z,100.00
2022-12-29T20:59:38.182Z,100.00
2022-12-29T21:02:07.240Z,99.91
2022-12-29T21:05:05.420Z,100.00
2022-12-29T21:07:26.069Z,100.00
2022-12-29T21:09:55.688Z,100.00
2022-12-29T21:12:27.234Z,100.00
2022-12-29T21:14:57.479Z,100.00
2022-12-29T21:17:26.359Z,100.00
2022-12-29T21:19:56.797Z,100.00
2022-12-29T21:22:28.108Z,100.00
2022-12-29T21:24:57.052Z,100.00
2022-12-29T21:27:29.494Z,100.00
2022-12-29T21:29:59.008Z,100.00
2022-12-29T21:32:28.645Z,100.00
2022-12-29T21:34:58.131Z,100.00
2022-12-29T21:37:27.046Z,100.00
2022-12-29T21:40:02.796Z,99.93
2022-12-29T21:42:35.370Z,99.79
2022-12-29T21:45:25.495Z,99.92
2022-12-29T21:48:17.021Z,99.89
2022-12-29T21:51:08.352Z,100.00
2022-12-29T21:53:41.290Z,100.00
2022-12-29T21:56:19.067Z,100.00
2022-12-29T21:59:09.930Z,100.00
2022-12-29T22:01:57.425Z,100.00
2022-12-29T22:04:44.931Z,100.00
2022-12-29T22:07:33.683Z,100.00
2022-12-29T22:10:21.169Z,100.00
2022-12-29T22:13:21.698Z,100.00
2022-12-29T22:15:52.666Z,100.00
2022-12-29T22:18:21.507Z,100.00
2022-12-29T22:20:50.449Z,100.00
2022-12-29T22:23:19.378Z,100.00
2022-12-29T22:25:48.858Z,100.00
2022-12-29T22:28:18.533Z,100.00
2022-12-29T22:30:47.445Z,100.00
2022-12-29T22:33:16.412Z,100.00
2022-12-29T22:35:45.807Z,100.00
2022-12-29T22:38:17.162Z,100.00
2022-12-29T22:40:47.383Z,100.00
2022-12-29T22:43:16.285Z,100.00
2022-12-29T22:45:45.220Z,100.00
2022-12-29T22:48:14.497Z,100.00
2022-12-29T22:50:43.604Z,100.00
2022-12-29T22:53:12.487Z,100.00
2022-12-29T22:55:41.259Z,100.00
2022-12-29T22:58:10.154Z,100.00
2022-12-29T23:00:39.070Z,100.00
2022-12-29T23:03:08.093Z,100.00
2022-12-29T23:05:37.197Z,100.00
2022-12-29T23:08:06.148Z,100.00
2022-12-29T23:10:35.119Z,100.00
2022-12-29T23:13:05.048Z,100.00
2022-12-29T23:15:33.763Z,100.00
2022-12-29T23:18:02.572Z,100.00
2022-12-29T23:20:40.475Z,100.00
2022-12-29T23:23:09.528Z,100.00
2022-12-29T23:25:41.384Z,100.00
2022-12-29T23:28:10.323Z,100.00
2022-12-29T23:30:39.082Z,100.00
2022-12-29T23:33:08.263Z,100.00
2022-12-29T23:35:37.216Z,100.00
2022-12-29T23:38:06.727Z,100.00
2022-12-29T23:40:35.506Z,100.00
2022-12-29T23:43:04.488Z,100.00
2022-12-29T23:45:39.143Z,100.00
2022-12-29T23:48:08.097Z,100.00
2022-12-29T23:50:43.114Z,100.00
2022-12-29T23:53:12.662Z,100.00
2022-12-29T23:55:44.364Z,100.00
2022-12-29T23:58:13.345Z,100.00
